| time (UTC) | temp F | wind direction | speed MPH | gust MPH | rain 1hr in | rain 24hr in | rain mn in | humidity % | barometer mb |
| 20260904022503 | 68 | 163 | 8.0 | 16.0 | 0.00 | 1.34 | 1.34 | 91 | 1013.0 |
| 20260904022002 | 68 | 203 | 6.0 | 14.0 | 0.00 | 1.34 | 1.34 | 91 | 1013.0 |
| 20260904021501 | 68 | 139 | 6.0 | 17.0 | 0.00 | 1.34 | 1.34 | 91 | 1012.9 |
| 20260904021002 | 68 | 180 | 6.0 | 17.0 | 0.00 | 1.34 | 1.34 | 91 | 1012.9 |
| 20260904020601 | 68 | 186 | 6.0 | 17.0 | 0.00 | 1.34 | 1.34 | 91 | 1012.8 |
| 20260904020059 | 68 | 91 | 6.0 | 13.0 | 0.00 | 1.34 | 1.34 | 91 | 1012.5 |
| 20260904015559 | 68 | 150 | 5.0 | 13.0 | 0.00 | 1.34 | 1.34 | 91 | 1012.5 |
| 20260904015102 | 68 | 135 | 4.0 | 12.0 | 0.00 | 1.34 | 1.34 | 91 | 1012.3 |
| 20260904014610 | 68 | 158 | 7.0 | 15.0 | 0.00 | 1.34 | 1.34 | 91 | 1012.4 |
| 20260904014058 | 68 | 145 | 7.0 | 15.0 | 0.00 | 1.34 | 1.34 | 91 | 1012.4 |
| 20260904013600 | 68 | 125 | 6.0 | 17.0 | 0.00 | 1.34 | 1.34 | 91 | 1012.5 |
| 20260904013056 | 68 | 168 | 9.0 | 17.0 | 0.00 | 1.34 | 1.34 | 91 | 1012.4 |
| 20260904012600 | 68 | 126 | 4.0 | 14.0 | 0.00 | 1.34 | 1.34 | 91 | 1012.6 |
| 20260904012056 | 68 | 264 | 4.0 | 14.0 | 0.00 | 1.34 | 1.34 | 91 | 1012.7 |
| 20260904011555 | 68 | 130 | 4.0 | 15.0 | 0.00 | 1.34 | 1.34 | 91 | 1012.6 |
| 20260904011056 | 68 | 133 | 4.0 | 15.0 | 0.00 | 1.34 | 1.34 | 91 | 1012.7 |
| 20260904010554 | 68 | 122 | 6.0 | 15.0 | 0.00 | 1.34 | 1.34 | 91 | 1012.8 |
| 20260904010058 | 68 | 133 | 5.0 | 15.0 | 0.00 | 1.34 | 1.34 | 91 | 1012.8 |
| 20260904005552 | 68 | 165 | 5.0 | 13.0 | 0.00 | 1.34 | 1.34 | 91 | 1012.9 |
| 20260904005051 | 68 | 151 | 5.0 | 14.0 | 0.01 | 1.34 | 1.34 | 90 | 1013.0 |
| 20260904004552 | 68 | 110 | 7.0 | 14.0 | 0.01 | 1.34 | 1.34 | 90 | 1012.9 |
| 20260904004052 | 68 | 149 | 5.0 | 13.0 | 0.02 | 1.34 | 1.34 | 90 | 1012.9 |
| 20260904003549 | 68 | 131 | 6.0 | 13.0 | 0.02 | 1.34 | 1.34 | 90 | 1012.8 |
| 20260904003050 | 68 | 154 | 5.0 | 15.0 | 0.02 | 1.34 | 1.34 | 90 | 1012.7 |
| 20260904002548 | 68 | 136 | 6.0 | 15.0 | 0.03 | 1.34 | 1.34 | 90 | 1013.0 |
| 20260904002050 | 68 | 127 | 4.0 | 11.0 | 0.04 | 1.34 | 1.34 | 90 | 1013.0 |
| 20260904001554 | 68 | 115 | 4.0 | 10.0 | 0.06 | 1.34 | 1.34 | 90 | 1012.8 |
| 20260904001048 | 68 | 125 | 4.0 | 9.0 | 0.07 | 1.34 | 1.34 | 90 | 1013.4 |
| 20260904000548 | 68 | 103 | 2.0 | 9.0 | 0.07 | 1.34 | 1.34 | 90 | 1013.3 |
| 20260904000110 | 68 | 112 | 3.0 | 9.0 | 0.08 | 1.34 | 1.34 | 90 | 1013.1 |
| 20260903235548 | 68 | 84 | 4.0 | 11.0 | 0.09 | 1.33 | 1.33 | 89 | 1013.4 |
| 20260903235046 | 68 | 71 | 5.0 | 11.0 | 0.11 | 1.33 | 1.33 | 89 | 1013.6 |
| 20260903234546 | 68 | 112 | 5.0 | 11.0 | 0.12 | 1.33 | 1.33 | 89 | 1013.9 |
| 20260903234046 | 68 | 69 | 6.0 | 10.0 | 0.19 | 1.32 | 1.32 | 89 | 1014.0 |
| 20260903233546 | 68 | 74 | 4.0 | 7.0 | 0.27 | 1.32 | 1.32 | 89 | 1014.5 |
| 20260903233102 | 68 | 54 | 2.0 | 6.0 | 0.38 | 1.32 | 1.32 | 89 | 1014.7 |
| 20260903232545 | 68 | 105 | 3.0 | 7.0 | 0.51 | 1.31 | 1.31 | 88 | 1014.9 |
| 20260903232045 | 69 | 58 | 2.0 | 8.0 | 0.66 | 1.30 | 1.30 | 88 | 1015.1 |
| 20260903231547 | 69 | 119 | 2.0 | 10.0 | 0.76 | 1.28 | 1.28 | 88 | 1015.3 |
| 20260903231044 | 69 | 356 | 4.0 | 11.0 | 0.82 | 1.27 | 1.27 | 88 | 1015.6 |
| 20260903230543 | 69 | 356 | 6.0 | 16.0 | 0.85 | 1.26 | 1.26 | 87 | 1015.5 |
| 20260903230104 | 69 | 20 | 7.0 | 16.0 | 0.86 | 1.25 | 1.25 | 87 | 1015.5 |
| 20260903225542 | 69 | 346 | 7.0 | 14.0 | 0.98 | 1.24 | 1.24 | 87 | 1015.7 |
| 20260903225041 | 69 | 342 | 6.0 | 17.0 | 1.02 | 1.22 | 1.22 | 86 | 1015.4 |
| 20260903224546 | 69 | 29 | 8.0 | 17.0 | 1.00 | 1.20 | 1.20 | 85 | 1015.2 |
| 20260903224040 | 70 | 323 | 7.0 | 16.0 | 0.92 | 1.12 | 1.12 | 85 | 1015.5 |
| 20260903223540 | 70 | 6 | 8.0 | 16.0 | 0.84 | 1.04 | 1.04 | 84 | 1015.9 |
| 20260903223105 | 71 | 25 | 7.0 | 13.0 | 0.71 | 0.91 | 0.91 | 83 | 1016.0 |
| 20260903222539 | 72 | 3 | 6.0 | 26.0 | 0.57 | 0.78 | 0.78 | 82 | 1016.6 |
| 20260903222038 | 73 | 309 | 4.0 | 35.0 | 0.43 | 0.63 | 0.63 | 80 | 1015.7 |
| 20260903221538 | 75 | 6 | 16.0 | 35.0 | 0.30 | 0.50 | 0.50 | 80 | 1014.7 |
| 20260903221041 | 77 | 351 | 6.0 | 12.0 | 0.25 | 0.45 | 0.45 | 82 | 1013.3 |
| 20260903220537 | 78 | 316 | 1.0 | 14.0 | 0.20 | 0.40 | 0.40 | 82 | 1012.4 |
| 20260903220038 | 78 | 54 | 2.0 | 14.0 | 0.18 | 0.38 | 0.38 | 81 | 1012.2 |
| 20260903215537 | 78 | 9 | 6.0 | 11.0 | 0.04 | 0.24 | 0.24 | 80 | 1012.8 |
| 20260903215036 | 78 | 333 | 4.0 | 6.0 | 0.00 | 0.20 | 0.20 | 79 | 1012.2 |
| 20260903214543 | 78 | 3 | 3.0 | 7.0 | 0.00 | 0.20 | 0.20 | 78 | 1012.3 |
| 20260903214038 | 79 | 236 | 2.0 | 11.0 | 0.00 | 0.20 | 0.20 | 78 | 1012.4 |
| 20260903213536 | 79 | 58 | 6.0 | 11.0 | 0.00 | 0.20 | 0.20 | 78 | 1012.3 |
| 20260903213046 | 79 | 20 | 5.0 | 9.0 | 0.00 | 0.20 | 0.20 | 79 | 1012.3 |
| 20260903212535 | 80 | 15 | 5.0 | 9.0 | 0.00 | 0.20 | 0.20 | 80 | 1012.2 |
| 20260903212034 | 80 | 330 | 4.0 | 7.0 | 0.00 | 0.20 | 0.20 | 80 | 1011.9 |
| 20260903211540 | 80 | 39 | 4.0 | 7.0 | 0.00 | 0.20 | 0.20 | 80 | 1011.7 |
| 20260903211035 | 81 | 356 | 3.0 | 7.0 | 0.00 | 0.20 | 0.20 | 80 | 1011.6 |
| 20260903210535 | 80 | 41 | 2.0 | 8.0 | 0.00 | 0.20 | 0.20 | 80 | 1011.5 |
| 20260903210049 | 80 | 3 | 4.0 | 8.0 | 0.00 | 0.20 | 0.20 | 80 | 1011.5 |
| 20260903205537 | 80 | 37 | 4.0 | 7.0 | 0.00 | 0.20 | 0.20 | 80 | 1011.1 |
| 20260903205034 | 80 | 8 | 1.0 | 4.0 | 0.00 | 0.20 | 0.20 | 80 | 1010.9 |
| 20260903204534 | 80 | 67 | 2.0 | 4.0 | 0.00 | 0.20 | 0.20 | 80 | 1010.7 |
| 20260903204038 | 79 | 18 | 0.0 | 7.0 | 0.00 | 0.20 | 0.20 | 80 | 1010.8 |
| 20260903203537 | 79 | 27 | 3.0 | 7.0 | 0.01 | 0.20 | 0.20 | 80 | 1011.1 |
| 20260903203036 | 79 | 23 | 3.0 | 7.0 | 0.02 | 0.20 | 0.20 | 81 | 1011.1 |
| 20260903202533 | 79 | 23 | 2.0 | 6.0 | 0.03 | 0.20 | 0.20 | 81 | 1010.9 |
| 20260903202134 | 79 | 15 | 2.0 | 6.0 | 0.05 | 0.20 | 0.20 | 82 | 1010.9 |
| 20260903201533 | 79 | 13 | 3.0 | 8.0 | 0.07 | 0.20 | 0.20 | 82 | 1010.9 |
| 20260903201033 | 79 | 30 | 3.0 | 8.0 | 0.07 | 0.20 | 0.20 | 83 | 1010.7 |
| 20260903200532 | 79 | 324 | 3.0 | 8.0 | 0.07 | 0.20 | 0.20 | 83 | 1010.9 |
| 20260903200031 | 79 | 336 | 3.0 | 8.0 | 0.07 | 0.20 | 0.20 | 83 | 1011.0 |
| 20260903195530 | 79 | 342 | 2.0 | 6.0 | 0.07 | 0.20 | 0.20 | 83 | 1011.1 |
| 20260903195029 | 79 | 84 | 2.0 | 6.0 | 0.07 | 0.20 | 0.20 | 82 | 1011.1 |
| 20260903194539 | 78 | 23 | 3.0 | 6.0 | 0.07 | 0.20 | 0.20 | 80 | 1011.3 |
| 20260903194027 | 78 | 147 | 1.0 | 15.0 | 0.07 | 0.20 | 0.20 | 76 | 1011.4 |
| 20260903193531 | 78 | 264 | 1.0 | 17.0 | 0.06 | 0.19 | 0.19 | 74 | 1011.5 |
| 20260903193027 | 79 | 327 | 9.0 | 17.0 | 0.05 | 0.18 | 0.18 | 75 | 1011.6 |
| 20260903192524 | 81 | 15 | 2.0 | 19.0 | 0.04 | 0.17 | 0.17 | 74 | 1011.9 |
| 20260903192024 | 83 | 340 | 12.0 | 27.0 | 0.01 | 0.14 | 0.14 | 71 | 1011.4 |
| 20260903191523 | 86 | 359 | 13.0 | 27.0 | 0.00 | 0.13 | 0.13 | 68 | 1011.9 |
| 20260903191027 | 88 | 356 | 13.0 | 23.0 | 0.00 | 0.13 | 0.13 | 65 | 1011.9 |
| 20260903190523 | 90 | 324 | 11.0 | 22.0 | 0.00 | 0.13 | 0.13 | 63 | 1011.9 |
| 20260903190021 | 91 | 236 | 1.0 | 7.0 | 0.00 | 0.13 | 0.13 | 62 | 1011.6 |
| 20260903185520 | 91 | 337 | 2.0 | 7.0 | 0.00 | 0.13 | 0.13 | 61 | 1011.6 |
| 20260903185025 | 91 | 290 | 1.0 | 8.0 | 0.00 | 0.13 | 0.13 | 61 | 1011.7 |
| 20260903184519 | 92 | 1 | 3.0 | 12.0 | 0.00 | 0.13 | 0.13 | 61 | 1012.0 |
| 20260903184022 | 92 | 218 | 3.0 | 13.0 | 0.00 | 0.13 | 0.13 | 61 | 1012.2 |
| 20260903183516 | 92 | 356 | 4.0 | 19.0 | 0.00 | 0.13 | 0.13 | 61 | 1012.1 |
| 20260903183015 | 92 | 220 | 9.0 | 19.0 | 0.00 | 0.13 | 0.13 | 62 | 1012.0 |
| 20260903182513 | 92 | 227 | 6.0 | 20.0 | 0.00 | 0.13 | 0.13 | 63 | 1012.0 |
| 20260903182013 | 91 | 250 | 9.0 | 20.0 | 0.00 | 0.13 | 0.13 | 65 | 1012.2 |
| 20260903181512 | 91 | 243 | 5.0 | 15.0 | 0.00 | 0.13 | 0.13 | 63 | 1012.2 |
| 20260903181015 | 91 | 215 | 8.0 | 20.0 | 0.00 | 0.13 | 0.13 | 66 | 1012.2 |
| 20260903180510 | 90 | 212 | 7.0 | 20.0 | 0.00 | 0.13 | 0.13 | 64 | 1012.2 |
| 20260903180010 | 90 | 216 | 7.0 | 18.0 | 0.00 | 0.13 | 0.13 | 65 | 1012.2 |
| 20260903175511 | 90 | 231 | 5.0 | 14.0 | 0.00 | 0.13 | 0.13 | 66 | 1012.2 |
| 20260903175007 | 90 | 222 | 5.0 | 14.0 | 0.00 | 0.13 | 0.13 | 67 | 1012.3 |
| 20260903174507 | 89 | 218 | 3.0 | 7.0 | 0.00 | 0.13 | 0.13 | 67 | 1012.4 |
| 20260903174006 | 89 | 156 | 1.0 | 10.0 | 0.00 | 0.13 | 0.13 | 66 | 1012.5 |
| 20260903173503 | 89 | 221 | 1.0 | 17.0 | 0.00 | 0.13 | 0.13 | 66 | 1012.6 |
| 20260903173003 | 89 | 216 | 9.0 | 17.0 | 0.00 | 0.13 | 0.13 | 67 | 1012.7 |
| 20260903172503 | 89 | 356 | 2.0 | 6.0 | 0.00 | 0.13 | 0.13 | 66 | 1012.8 |
| 20260903172002 | 89 | 247 | 2.0 | 12.0 | 0.00 | 0.13 | 0.13 | 66 | 1012.9 |
| 20260903171500 | 89 | 196 | 5.0 | 13.0 | 0.00 | 0.13 | 0.13 | 68 | 1013.0 |
| 20260903171100 | 89 | 292 | 7.0 | 15.0 | 0.00 | 0.13 | 0.13 | 69 | 1013.1 |
| 20260903170600 | 88 | 233 | 4.0 | 15.0 | 0.00 | 0.13 | 0.13 | 67 | 1013.1 |
| 20260903170105 | 88 | 234 | 5.0 | 15.0 | 0.00 | 0.13 | 0.13 | 67 | 1013.1 |
| 20260903165558 | 89 | 218 | 4.0 | 15.0 | 0.00 | 0.13 | 0.13 | 67 | 1013.1 |
| 20260903165059 | 89 | 202 | 8.0 | 15.0 | 0.00 | 0.13 | 0.13 | 68 | 1013.0 |
| 20260903164556 | 88 | 204 | 8.0 | 16.0 | 0.00 | 0.13 | 0.13 | 69 | 1013.2 |
| 20260903164055 | 88 | 255 | 9.0 | 16.0 | 0.00 | 0.13 | 0.13 | 70 | 1013.2 |
| 20260903163555 | 88 | 212 | 4.0 | 15.0 | 0.00 | 0.13 | 0.13 | 70 | 1013.3 |
| 20260903163053 | 87 | 221 | 5.0 | 15.0 | 0.00 | 0.13 | 0.13 | 69 | 1013.3 |
| 20260903162556 | 87 | 239 | 5.0 | 16.0 | 0.00 | 0.13 | 0.13 | 70 | 1013.4 |
| 20260903162052 | 87 | 231 | 8.0 | 16.0 | 0.00 | 0.13 | 0.13 | 71 | 1013.5 |
| 20260903161551 | 87 | 186 | 6.0 | 14.0 | 0.00 | 0.13 | 0.13 | 73 | 1013.5 |
| 20260903161049 | 86 | 147 | 7.0 | 15.0 | 0.00 | 0.13 | 0.13 | 73 | 1013.4 |
| 20260903160548 | 86 | 221 | 9.0 | 15.0 | 0.00 | 0.13 | 0.13 | 72 | 1013.2 |
| 20260903160050 | 86 | 158 | 6.0 | 13.0 | 0.00 | 0.13 | 0.13 | 73 | 1013.3 |
| 20260903155548 | 85 | 214 | 6.0 | 12.0 | 0.00 | 0.13 | 0.13 | 74 | 1013.3 |
| 20260903155046 | 85 | 211 | 5.0 | 13.0 | 0.00 | 0.13 | 0.13 | 73 | 1013.3 |
| 20260903154546 | 85 | 41 | 3.0 | 13.0 | 0.00 | 0.13 | 0.13 | 73 | 1013.3 |
| 20260903154047 | 85 | 236 | 5.0 | 17.0 | 0.00 | 0.13 | 0.13 | 73 | 1013.3 |
| 20260903153544 | 85 | 220 | 9.0 | 17.0 | 0.00 | 0.13 | 0.13 | 73 | 1013.3 |
| 20260903153042 | 84 | 309 | 5.0 | 14.0 | 0.00 | 0.13 | 0.13 | 73 | 1013.4 |
| 20260903152542 | 84 | 223 | 7.0 | 15.0 | 0.00 | 0.13 | 0.13 | 73 | 1013.5 |
| 20260903152042 | 84 | 243 | 5.0 | 15.0 | 0.00 | 0.13 | 0.13 | 72 | 1013.5 |
| 20260903151543 | 84 | 207 | 8.0 | 22.0 | 0.00 | 0.13 | 0.13 | 73 | 1013.5 |
| 20260903151043 | 84 | 220 | 11.0 | 22.0 | 0.00 | 0.13 | 0.13 | 73 | 1013.4 |
| 20260903150543 | 84 | 227 | 9.0 | 18.0 | 0.00 | 0.13 | 0.13 | 74 | 1013.5 |
| 20260903150052 | 84 | 206 | 6.0 | 17.0 | 0.00 | 0.13 | 0.13 | 75 | 1013.5 |
| 20260903145539 | 83 | 254 | 4.0 | 15.0 | 0.00 | 0.13 | 0.13 | 75 | 1013.6 |
| 20260903145037 | 83 | 239 | 10.0 | 15.0 | 0.00 | 0.13 | 0.13 | 76 | 1013.6 |
| 20260903144539 | 83 | 255 | 6.0 | 17.0 | 0.00 | 0.13 | 0.13 | 77 | 1013.5 |
| 20260903144034 | 82 | 233 | 8.0 | 17.0 | 0.00 | 0.13 | 0.13 | 77 | 1013.4 |
| 20260903143533 | 81 | 238 | 8.0 | 15.0 | 0.00 | 0.13 | 0.13 | 78 | 1013.5 |
| 20260903143033 | 81 | 227 | 4.0 | 15.0 | 0.00 | 0.13 | 0.13 | 79 | 1013.5 |
| 20260903142534 | 81 | 220 | 7.0 | 17.0 | 0.00 | 0.13 | 0.13 | 80 | 1013.5 |
| 20260903142033 | 80 | 264 | 5.0 | 17.0 | 0.00 | 0.13 | 0.13 | 80 | 1013.5 |
| 20260903141530 | 80 | 312 | 8.0 | 15.0 | 0.00 | 0.13 | 0.13 | 81 | 1013.5 |
| 20260903141029 | 79 | 168 | 8.0 | 15.0 | 0.00 | 0.13 | 0.13 | 81 | 1013.5 |
| 20260903140529 | 79 | 207 | 6.0 | 12.0 | 0.00 | 0.13 | 0.13 | 82 | 1013.5 |
| 20260903140031 | 78 | 259 | 5.0 | 12.0 | 0.00 | 0.13 | 0.13 | 82 | 1013.3 |
| 20260903135527 | 78 | 241 | 5.0 | 16.0 | 0.00 | 0.13 | 0.13 | 83 | 1013.4 |
| 20260903135027 | 78 | 231 | 9.0 | 16.0 | 0.00 | 0.13 | 0.13 | 83 | 1013.4 |
| 20260903134527 | 77 | 250 | 6.0 | 15.0 | 0.00 | 0.13 | 0.13 | 83 | 1013.5 |
| 20260903134025 | 77 | 214 | 8.0 | 16.0 | 0.00 | 0.13 | 0.13 | 84 | 1013.5 |
| 20260903133624 | 76 | 223 | 7.0 | 16.0 | 0.00 | 0.13 | 0.13 | 85 | 1013.5 |
| 20260903133026 | 76 | 218 | 7.0 | 14.0 | 0.00 | 0.13 | 0.13 | 86 | 1013.6 |
| 20260903132523 | 76 | 257 | 7.0 | 15.0 | 0.00 | 0.13 | 0.13 | 86 | 1013.7 |
| 20260903132022 | 75 | 269 | 8.0 | 15.0 | 0.00 | 0.13 | 0.13 | 86 | 1013.7 |
| 20260903131522 | 75 | 185 | 6.0 | 13.0 | 0.00 | 0.13 | 0.13 | 87 | 1013.6 |
| 20260903131022 | 74 | 220 | 7.0 | 13.0 | 0.00 | 0.13 | 0.13 | 87 | 1013.7 |
| 20260903130522 | 74 | 196 | 5.0 | 11.0 | 0.00 | 0.13 | 0.13 | 87 | 1013.7 |
| 20260903130021 | 74 | 207 | 5.0 | 11.0 | 0.00 | 0.13 | 0.13 | 88 | 1013.7 |
| 20260903125521 | 74 | 197 | 5.0 | 14.0 | 0.00 | 0.13 | 0.13 | 88 | 1013.7 |
| 20260903125021 | 73 | 201 | 7.0 | 14.0 | 0.00 | 0.13 | 0.13 | 88 | 1013.7 |
| 20260903124521 | 73 | 197 | 7.0 | 11.0 | 0.00 | 0.13 | 0.13 | 89 | 1013.8 |
| 20260903124019 | 73 | 173 | 5.0 | 9.0 | 0.00 | 0.13 | 0.13 | 89 | 1013.8 |
| 20260903123519 | 72 | 217 | 5.0 | 8.0 | 0.00 | 0.13 | 0.13 | 89 | 1013.8 |
| 20260903123018 | 72 | 233 | 3.0 | 7.0 | 0.00 | 0.13 | 0.13 | 89 | 1013.7 |
| 20260903122520 | 71 | 218 | 3.0 | 7.0 | 0.00 | 0.13 | 0.13 | 89 | 1013.7 |
| 20260903122017 | 71 | 160 | 2.0 | 6.0 | 0.00 | 0.13 | 0.13 | 89 | 1013.6 |
| 20260903121541 | 70 | 153 | 1.0 | 9.0 | 0.00 | 0.13 | 0.13 | 88 | 1013.6 |
| 20260903121015 | 70 | 130 | 3.0 | 9.0 | 0.00 | 0.13 | 0.13 | 88 | 1013.6 |
| 20260903120514 | 70 | 173 | 4.0 | 8.0 | 0.00 | 0.13 | 0.13 | 88 | 1013.6 |
| 20260903120014 | 70 | 180 | 4.0 | 10.0 | 0.00 | 0.13 | 0.13 | 88 | 1013.5 |
| 20260903115510 | 69 | 213 | 5.0 | 10.0 | 0.00 | 0.13 | 0.13 | 88 | 1013.5 |
| 20260903115008 | 69 | 166 | 4.0 | 10.0 | 0.00 | 0.13 | 0.13 | 87 | 1013.5 |
| 20260903114507 | 69 | 173 | 4.0 | 10.0 | 0.03 | 0.13 | 0.13 | 87 | 1013.5 |
| 20260903114011 | 69 | 185 | 5.0 | 9.0 | 0.13 | 0.13 | 0.13 | 87 | 1013.6 |
| 20260903113506 | 69 | 201 | 4.0 | 10.0 | 0.13 | 0.13 | 0.13 | 86 | 1013.7 |
| 20260903113005 | 69 | 157 | 4.0 | 10.0 | 0.13 | 0.13 | 0.13 | 86 | 1013.7 |
| 20260903112508 | 69 | 215 | 3.0 | 10.0 | 0.13 | 0.13 | 0.13 | 86 | 1013.8 |
| 20260903112004 | 69 | 203 | 4.0 | 10.0 | 0.13 | 0.13 | 0.13 | 85 | 1013.7 |
| 20260903111504 | 69 | 207 | 5.0 | 12.0 | 0.13 | 0.13 | 0.13 | 85 | 1013.6 |
| 20260903111005 | 69 | 145 | 4.0 | 12.0 | 0.13 | 0.13 | 0.13 | 84 | 1013.5 |
| 20260903110502 | 70 | 112 | 3.0 | 11.0 | 0.13 | 0.13 | 0.13 | 84 | 1013.4 |
| 20260903110001 | 70 | 131 | 4.0 | 12.0 | 0.13 | 0.13 | 0.13 | 83 | 1013.3 |
| 20260903105600 | 70 | 153 | 6.0 | 13.0 | 0.13 | 0.13 | 0.13 | 83 | 1013.3 |
| 20260903105059 | 70 | 127 | 5.0 | 13.0 | 0.13 | 0.13 | 0.13 | 82 | 1013.4 |
| 20260903104603 | 71 | 243 | 5.0 | 12.0 | 0.10 | 0.10 | 0.10 | 81 | 1013.4 |
| 20260903104057 | 71 | 315 | 2.0 | 9.0 | 0.00 | 0.00 | 0.00 | 80 | 1014.6 |
| 20260903103556 | 71 | 123 | 2.0 | 9.0 | 0.00 | 0.00 | 0.00 | 80 | 1013.9 |
| 20260903103056 | 71 | 147 | 5.0 | 12.0 | 0.00 | 0.00 | 0.00 | 80 | 1013.8 |
| 20260903102556 | 71 | 77 | 7.0 | 12.0 | 0.00 | 0.00 | 0.00 | 79 | 1014.0 |
| 20260903102052 | 72 | 356 | 5.0 | 10.0 | 0.00 | 0.00 | 0.00 | 79 | 1014.4 |
| 20260903101554 | 72 | 8 | 3.0 | 10.0 | 0.00 | 0.00 | 0.00 | 79 | 1014.2 |
| 20260903101053 | 72 | 41 | 3.0 | 10.0 | 0.00 | 0.00 | 0.00 | 79 | 1014.2 |
| 20260903100549 | 73 | 41 | 4.0 | 18.0 | 0.00 | 0.00 | 0.00 | 79 | 1014.6 |
| 20260903100048 | 74 | 67 | 5.0 | 22.0 | 0.00 | 0.00 | 0.00 | 78 | 1014.6 |
| 20260903095546 | 74 | 343 | 5.0 | 24.0 | 0.00 | 0.00 | 0.00 | 78 | 1014.3 |
| 20260903095046 | 75 | 20 | 8.0 | 24.0 | 0.00 | 0.00 | 0.00 | 78 | 1014.5 |
| 20260903094552 | 75 | 18 | 10.0 | 20.0 | 0.00 | 0.00 | 0.00 | 77 | 1014.3 |
| 20260903094043 | 76 | 44 | 9.0 | 14.0 | 0.00 | 0.00 | 0.00 | 77 | 1014.2 |
| 20260903093542 | 76 | 4 | 6.0 | 21.0 | 0.00 | 0.00 | 0.00 | 77 | 1013.9 |
| 20260903093047 | 76 | 245 | 5.0 | 23.0 | 0.00 | 0.00 | 0.00 | 76 | 1014.1 |
| 20260903092541 | 76 | 8 | 12.0 | 23.0 | 0.00 | 0.00 | 0.00 | 76 | 1013.8 |
| 20260903092040 | 76 | 130 | 3.0 | 10.0 | 0.00 | 0.00 | 0.00 | 76 | 1012.9 |
| 20260903091551 | 76 | 247 | 3.0 | 14.0 | 0.00 | 0.00 | 0.00 | 76 | 1012.6 |
| 20260903091039 | 75 | 216 | 7.0 | 14.0 | 0.00 | 0.00 | 0.00 | 76 | 1012.6 |
| 20260903090540 | 75 | 192 | 5.0 | 12.0 | 0.00 | 0.00 | 0.00 | 76 | 1012.6 |
| 20260903090040 | 75 | 233 | 5.0 | 12.0 | 0.00 | 0.00 | 0.00 | 76 | 1012.6 |
| 20260903085542 | 75 | 189 | 4.0 | 9.0 | 0.00 | 0.00 | 0.00 | 76 | 1012.6 |
| 20260903085038 | 75 | 229 | 3.0 | 8.0 | 0.00 | 0.00 | 0.00 | 75 | 1012.7 |
| 20260903084537 | 75 | 218 | 3.0 | 9.0 | 0.00 | 0.00 | 0.00 | 75 | 1012.6 |
| 20260903084037 | 74 | 173 | 4.0 | 9.0 | 0.00 | 0.00 | 0.00 | 76 | 1012.5 |
| 20260903083537 | 74 | 248 | 2.0 | 7.0 | 0.00 | 0.00 | 0.00 | 76 | 1012.4 |
| 20260903083037 | 74 | 226 | 2.0 | 8.0 | 0.00 | 0.00 | 0.00 | 76 | 1012.5 |
| 20260903082537 | 74 | 218 | 3.0 | 8.0 | 0.00 | 0.00 | 0.00 | 76 | 1012.5 |
| 20260903082037 | 74 | 225 | 3.0 | 8.0 | 0.00 | 0.00 | 0.00 | 76 | 1012.5 |
| 20260903081538 | 74 | 156 | 4.0 | 8.0 | 0.00 | 0.00 | 0.00 | 76 | 1012.4 |
| 20260903081037 | 74 | 188 | 4.0 | 9.0 | 0.00 | 0.00 | 0.00 | 76 | 1012.5 |
| 20260903080536 | 74 | 187 | 4.0 | 9.0 | 0.00 | 0.00 | 0.00 | 76 | 1012.5 |
| 20260903080042 | 74 | 221 | 3.0 | 6.0 | 0.00 | 0.00 | 0.00 | 75 | 1012.5 |
| 20260903075539 | 74 | 173 | 3.0 | 6.0 | 0.00 | 0.00 | 0.00 | 75 | 1012.5 |
| 20260903075137 | 74 | 192 | 3.0 | 6.0 | 0.00 | 0.00 | 0.00 | 75 | 1012.7 |
| 20260903074539 | 74 | 160 | 4.0 | 6.0 | 0.00 | 0.00 | 0.00 | 75 | 1012.8 |
| 20260903074034 | 74 | 218 | 2.0 | 6.0 | 0.00 | 0.00 | 0.00 | 75 | 1012.8 |
| 20260903073533 | 74 | 211 | 2.0 | 5.0 | 0.00 | 0.00 | 0.00 | 74 | 1013.0 |
| 20260903073037 | 75 | 218 | 2.0 | 4.0 | 0.00 | 0.00 | 0.00 | 74 | 1013.0 |
| 20260903072532 | 75 | 240 | 1.0 | 5.0 | 0.00 | 0.00 | 0.00 | 74 | 1012.8 |
| 20260903072033 | 75 | 208 | 2.0 | 7.0 | 0.00 | 0.00 | 0.00 | 74 | 1012.7 |
| 20260903071532 | 75 | 218 | 3.0 | 7.0 | 0.00 | 0.00 | 0.00 | 74 | 1012.7 |
| 20260903071030 | 75 | 196 | 3.0 | 6.0 | 0.00 | 0.00 | 0.00 | 73 | 1012.7 |
| 20260903070529 | 76 | 192 | 2.0 | 4.0 | 0.00 | 0.00 | 0.00 | 73 | 1012.7 |
| 20260903070029 | 76 | 226 | 3.0 | 4.0 | 0.00 | 0.00 | 0.00 | 73 | 1012.9 |
| 20260903065528 | 76 | 224 | 1.0 | 3.0 | 0.00 | 0.00 | 0.00 | 73 | 1012.9 |
| 20260903065026 | 76 | 245 | 1.0 | 6.0 | 0.00 | 0.00 | 0.00 | 72 | 1013.0 |
| 20260903064525 | 76 | 356 | 3.0 | 6.0 | 0.00 | 0.00 | 0.00 | 72 | 1013.2 |
| 20260903064025 | 76 | 229 | 1.0 | 3.0 | 0.00 | 0.00 | 0.00 | 72 | 1013.2 |
| 20260903063524 | 77 | 84 | 0.0 | 3.0 | 0.00 | 0.00 | 0.00 | 72 | 1013.3 |
| 20260903063024 | 77 | 218 | 0.0 | 5.0 | 0.00 | 0.00 | 0.00 | 71 | 1013.4 |
| 20260903062522 | 77 | 130 | 1.0 | 10.0 | 0.00 | 0.00 | 0.00 | 71 | 1013.5 |
| 20260903062021 | 77 | 356 | 1.0 | 10.0 | 0.00 | 0.00 | 0.00 | 71 | 1013.5 |
| 20260903061522 | 78 | 328 | 4.0 | 15.0 | 0.00 | 0.00 | 0.00 | 71 | 1013.6 |
| 20260903061021 | 78 | 309 | 6.0 | 15.0 | 0.00 | 0.00 | 0.00 | 70 | 1013.8 |
| 20260903060519 | 78 | 301 | 7.0 | 15.0 | 0.00 | 0.00 | 0.00 | 70 | 1013.8 |
| 20260903060017 | 79 | 4 | 5.0 | 15.0 | 0.00 | 0.00 | 0.00 | 70 | 1013.9 |
| 20260903055516 | 79 | 11 | 8.0 | 20.0 | 0.00 | 0.00 | 0.00 | 70 | 1013.8 |
| 20260903055014 | 80 | 329 | 6.0 | 25.0 | 0.00 | 0.00 | 0.00 | 72 | 1013.9 |
| 20260903054516 | 80 | 328 | 9.0 | 25.0 | 0.00 | 0.00 | 0.00 | 74 | 1013.9 |
| 20260903054012 | 81 | 320 | 4.0 | 14.0 | 0.00 | 0.00 | 0.00 | 76 | 1013.9 |
| 20260903053510 | 81 | 10 | 3.0 | 15.0 | 0.00 | 0.00 | 0.00 | 76 | 1013.1 |
| 20260903053009 | 81 | 221 | 6.0 | 15.0 | 0.00 | 0.00 | 0.00 | 75 | 1012.8 |
| 20260903052507 | 81 | 231 | 4.0 | 14.0 | 0.00 | 0.00 | 0.00 | 75 | 1012.7 |
| 20260903052007 | 81 | 220 | 7.0 | 12.0 | 0.00 | 0.00 | 0.00 | 75 | 1012.7 |
| 20260903051507 | 81 | 236 | 4.0 | 14.0 | 0.00 | 0.00 | 0.00 | 75 | 1012.6 |
| 20260903051005 | 81 | 247 | 7.0 | 14.0 | 0.00 | 0.00 | 0.00 | 75 | 1012.6 |
| 20260903050504 | 81 | 243 | 7.0 | 13.0 | 0.00 | 0.00 | 0.00 | 75 | 1012.5 |
| 20260903050003 | 81 | 227 | 5.0 | 16.0 | 0.00 | 0.00 | 0.00 | 75 | 1012.4 |
| 20260903045504 | 81 | 223 | 8.0 | 18.0 | 0.00 | 0.00 | 0.00 | 74 | 1012.2 |
| 20260903045001 | 81 | 288 | 8.0 | 18.0 | 0.00 | 0.00 | 0.00 | 74 | 1012.2 |
| 20260903044600 | 81 | 199 | 8.0 | 16.0 | 0.00 | 0.00 | 0.00 | 74 | 1012.1 |
| 20260903044100 | 81 | 222 | 7.0 | 16.0 | 0.00 | 0.00 | 0.00 | 74 | 1012.1 |
| 20260903043603 | 81 | 228 | 9.0 | 17.0 | 0.00 | 0.00 | 0.00 | 74 | 1012.0 |
| 20260903043102 | 81 | 345 | 7.0 | 18.0 | 0.00 | 0.00 | 0.00 | 74 | 1012.1 |
| 20260903042656 | 81 | 274 | 7.0 | 18.0 | 0.00 | 0.00 | 0.00 | 74 | 1011.9 |
| 20260903042055 | 82 | 255 | 6.0 | 18.0 | 0.00 | 0.00 | 0.00 | 73 | 1011.9 |
| 20260903041557 | 82 | 215 | 9.0 | 18.0 | 0.00 | 0.00 | 0.00 | 73 | 1011.9 |
| 20260903041053 | 82 | 236 | 7.0 | 17.0 | 0.00 | 0.00 | 0.00 | 73 | 1011.7 |
| 20260903040553 | 82 | 248 | 9.0 | 17.0 | 0.00 | 0.00 | 0.00 | 73 | 1011.7 |
| 20260903040051 | 82 | 213 | 6.0 | 14.0 | 0.00 | 0.00 | 0.00 | 72 | 1011.6 |
| 20260903035550 | 82 | 236 | 7.0 | 15.0 | 0.00 | 0.00 | 0.00 | 72 | 1011.6 |
| 20260903035050 | 82 | 247 | 7.0 | 16.0 | 0.00 | 0.00 | 0.00 | 72 | 1011.6 |
| 20260903034553 | 82 | 232 | 6.0 | 16.0 | 0.00 | 0.00 | 0.00 | 72 | 1011.4 |
| 20260903034051 | 82 | 217 | 6.0 | 17.0 | 0.00 | 0.00 | 0.00 | 72 | 1011.4 |
| 20260903033553 | 82 | 232 | 9.0 | 17.0 | 0.00 | 0.00 | 0.00 | 72 | 1011.2 |
| 20260903033049 | 82 | 183 | 9.0 | 17.0 | 0.00 | 0.00 | 0.00 | 72 | 1011.1 |
| 20260903032549 | 82 | 234 | 7.0 | 19.0 | 0.00 | 0.00 | 0.00 | 71 | 1011.1 |
| 20260903032048 | 82 | 206 | 10.0 | 19.0 | 0.00 | 0.00 | 0.00 | 71 | 1011.1 |
| 20260903031548 | 82 | 224 | 9.0 | 20.0 | 0.00 | 0.00 | 0.00 | 71 | 1011.2 |
| 20260903031047 | 82 | 213 | 10.0 | 20.0 | 0.00 | 0.00 | 0.00 | 71 | 1011.3 |
| 20260903030546 | 82 | 202 | 9.0 | 21.0 | 0.00 | 0.00 | 0.00 | 71 | 1011.5 |
| 20260903030051 | 82 | 199 | 8.0 | 21.0 | 0.00 | 0.00 | 0.00 | 71 | 1011.7 |
| 20260903025545 | 82 | 236 | 7.0 | 16.0 | 0.00 | 0.00 | 0.00 | 71 | 1011.8 |
| 20260903025044 | 82 | 197 | 7.0 | 16.0 | 0.00 | 0.00 | 0.00 | 71 | 1011.9 |
| 20260903024543 | 83 | 248 | 9.0 | 16.0 | 0.00 | 0.00 | 0.00 | 71 | 1012.0 |
| 20260903024044 | 83 | 245 | 5.0 | 15.0 | 0.00 | 0.00 | 0.00 | 71 | 1012.1 |
| 20260903023543 | 83 | 228 | 8.0 | 17.0 | 0.00 | 0.00 | 0.00 | 71 | 1012.2 |
| 20260903023046 | 83 | 240 | 6.0 | 17.0 | 0.00 | 0.00 | 0.00 | 71 | 1012.2 |